TOURFACTS.DK  
Stats and Facts from Tour de France.

Tour de France 2019 starts in 348 days
  Riders   Stages   Teams   Summits   Yearly  


 
Search by year

After 2018 - Stage 14:
 15000 starters.
  5163 different riders.
  639 teams.
  2246 stages.
  456 restdays.
  441957.60 km.
  5678 abandonnees.


Top 3
GC
Christopher Froome86:20:55
Rigoberto Urán86:21:49
Romain Bardet86:23:15
Climb
Warren Barguil169 pt.
Primoz Roglic80 pt.
Thomas De Gendt64 pt.
Sprint
Michael Matthews359 pt.
André Greipel234 pt.
Edvald Boasson Hagen220 pt.
Youth
Simon Yates86:27:09
Louis Meintjes86:29:15
Emanuel Buchmann86:54:16
Facts from Tour de France 1931
  |   Stages.  |   Stage winners.  |   Days in yellow  |   Average speed.  |   Route.  |   Teams.  |   All riders.  |   Rookies.  |  

  |   Withdrawls.  |   GC.  |   Polka  |   Green  |   White  |   Summits. (In tour)  |   Miscellaneous.  |  

Stage 3 on July 2nd. 1931
         Owning:    Léon Le Calvez    
Pick a stage:  1 2 3 4 5 6 7 8 9 10 11 12 13 14 15 16 17 18 19 20 21 22 23 24
From: Dinan    To: BrestDist:206.00 km.

Average speed for all riders in stage:  31,486 km./hr.
    Place:Name:Team:Time:Km/h:
ITAFabio BattesiniITAItaly06:17:29  +  00:00:00=32,743 
FRALéon Le CalvezFRAFrance06:17:29  +  00:00:00=32,743 
GERKurt StöpelDEUGermany06:17:29  +  00:00:00=32,743 
4 GERErich MetzeDEUGermany06:17:29  +  00:00:00=32,743 
5 GERKarl AltenburgerDEUGermany06:17:29  +  00:00:00=32,743 
6 BELRomain GijsselsBELBelgium06:17:29  +  00:00:00=32,743 
7 BELAlfons SchepersBELBelgium06:17:29  +  00:00:00=32,743 
8 SUIGeorges AntenenCHEAustralia-Switzerland06:17:29  +  00:00:00=32,743 
9 BELMaurice De WaeleBELBelgium06:17:29  +  00:00:00=32,743 
10 SUIAlbert BüchiCHEAustralia-Switzerland06:17:29  +  00:00:00=32,743 
11 GEROskar ThierbachDEUGermany06:17:29  +  00:00:00=32,743 
12 POLAlfred SiegelDEUGermany06:17:29  +  00:00:00=32,743 
13 GERHermann BuseDEUGermany06:17:29  +  00:00:00=32,743 
14 GERHerbert SieronskiDEUGermany06:17:29  +  00:00:00=32,743 
15 FRAAntonin MagneFRAFrance06:17:29  +  00:00:00=32,743 
16 FRABenoit FaureFRAFrance06:17:29  +  00:00:00=32,743 
17 FRAAndré LeducqFRAFrance06:17:29  +  00:00:00=32,743 
18 BELAlfred HamerlinckBELBelgium06:17:29  +  00:00:00=32,743 
19 FRALouis PeglionFRAFrance06:17:29  +  00:00:00=32,743 
20 BELGaston RebryBELBelgium06:17:29  +  00:00:00=32,743 
21 BELJef DemuysereBELBelgium06:17:29  +  00:00:00=32,743 
22 BELJulien VervaeckeBELBelgium06:17:29  +  00:00:00=32,743 
23 BELBernard Van RysselbergheBELBelgium06:17:29  +  00:00:00=32,743 
24 ITALuigi GiacobbeITAItaly06:17:29  +  00:00:00=32,743 
25 ITARafaële Di PacoITAItaly06:17:29  +  00:00:00=32,743 
26 ITAFrancesco CamussoITAItaly06:17:29  +  00:00:00=32,743 
27 ITAEugenio GestriITAItaly06:17:29  +  00:00:00=32,743 
28 ITAFelice GremoITAItaly06:17:29  +  00:00:00=32,743 
29 ITAMichele OrecchiaITAItaly06:17:29  +  00:00:00=32,743 
30 ITAAntonio PesentiITAItaly06:17:29  +  00:00:00=32,743 
31 AUSHubert OppermanCHEAustralia-Switzerland06:17:29  +  00:00:00=32,743 
32 FRACharles PelissierFRAFrance06:17:29  +  00:00:00=32,743 
33 GERLudwig GeyerDEUGermany06:18:05  +  00:00:36=32,691 
34 FRAJean MaréchalFRAFrance06:24:41  +  00:07:12=32,130 
35 FRAJoseph MauclairFRAFrance06:32:27  +  00:14:58=31,494 
36 SUIRoger PipozCHEAustralia-Switzerland06:33:19  +  00:15:50=31,425 
37 GERErich UssatTouristes Routiers06:46:45  +  00:29:16=30,387 
38 FRARené BernardTouristes Routiers06:46:45  +  00:29:16=30,387 
39 FRAJean BidotTouristes Routiers06:46:45  +  00:29:16=30,387 
40 FRALouis BajardTouristes Routiers06:46:45  +  00:29:16=30,387 
41 FRAGeorges BertonTouristes Routiers06:46:45  +  00:29:16=30,387 
42 FRAFrancis BouilletTouristes Routiers06:46:45  +  00:29:16=30,387 
43 FRARobert BrugéreTouristes Routiers06:46:45  +  00:29:16=30,387 
44 FRAAdrien ButtafocchiTouristes Routiers06:46:45  +  00:29:16=30,387 
45 FRAFernand FayolleTouristes Routiers06:46:45  +  00:29:16=30,387 
46 FRAFrancois FavéTouristes Routiers06:46:45  +  00:29:16=30,387 
47 FRAAndré GodinatTouristes Routiers06:46:45  +  00:29:16=30,387 
48 FRAMarius GuiramandTouristes Routiers06:46:45  +  00:29:16=30,387 
49 AUTMax BullaTouristes Routiers06:46:45  +  00:29:16=30,387 
50 ESPSalvador CardonaTouristes Routiers06:46:45  +  00:29:16=30,387 
51 ITAAmulio ViarengoTouristes Routiers06:46:45  +  00:29:16=30,387 
52 FRAAndré Van VierstTouristes Routiers06:46:45  +  00:29:16=30,387 
53 FRAJean RiondetTouristes Routiers06:46:45  +  00:29:16=30,387 
54 FRAJulien PerrainTouristes Routiers06:46:45  +  00:29:16=30,387 
55 BELJules GoedhuysTouristes Routiers06:46:45  +  00:29:16=30,387 
56 BELAchille ViaeneTouristes Routiers06:46:45  +  00:29:16=30,387 
57 BELGerard LonckeTouristes Routiers06:46:45  +  00:29:16=30,387 
58 BELAuguste Van TrichtTouristes Routiers06:46:45  +  00:29:16=30,387 
59 BELRobert Van GrootenbrueleTouristes Routiers06:46:45  +  00:29:16=30,387 
60 BELJean NaertTouristes Routiers06:46:45  +  00:29:16=30,387 
61 BELGeorges LaloupTouristes Routiers06:46:45  +  00:29:16=30,387 
62 ITAGiuseppe PanceraTouristes Routiers06:46:45  +  00:29:16=30,387 
63 ITAAlessandro CatalaniTouristes Routiers06:46:45  +  00:29:16=30,387 
64 FRAFrancois HenriTouristes Routiers06:46:45  +  00:29:16=30,387 
65 AUSRichard LambCHEAustralia-Switzerland06:46:45  +  00:29:16=30,387 
66 BELFrançois MoreelsTouristes Routiers06:47:30  +  00:30:01=30,331 
67 FRALazare VenotTouristes Routiers06:47:30  +  00:30:01=30,331 
68 GERKurt NitzschkeTouristes Routiers06:47:32  +  00:30:03=30,329 
69 ESPFrancisco CepedaESPSpain06:56:30  +  00:39:01=29,676 
70 AUSOserick NicholsonCHEAustralia-Switzerland06:56:30  +  00:39:01=29,676 

Withdrawls: 4
 
Rider
Team
Reason
20  AUSFrankie ThomasCHEAustralia-SwitzerlandDid not finish
112  ITAPietro MoriTouristes RoutiersDid not finish
133  FRAJean FontenayTouristes RoutiersDid not finish
134  FRAMarcel MazeyratTouristes RoutiersDid not finish

Todays birthdays.

1877  Antoine Perrichon
1878  Auguste Berthault
1911  Théo Herckenrath
1924  Carlo Lafranchi
1931  Armand Di Caro
1937  Jean-Claude Lebaube
1951  Giovanni Battaglin
1961  Pascal Jules
1962  Jean-Claude Leclercq
1976  Janek Tombak
1978  Francisco Pérez
1983  Dries Devenyns




Visits: